createdAt,value
2018-07-27T00:01:34.492Z,29.77
2018-07-27T00:04:03.189Z,29.73
2018-07-27T00:06:31.917Z,29.71
2018-07-27T00:09:00.597Z,29.69
2018-07-27T00:11:29.258Z,29.64
2018-07-27T00:13:57.792Z,29.60
2018-07-27T00:16:26.553Z,29.59
2018-07-27T00:18:55.199Z,29.54
2018-07-27T00:21:23.888Z,29.51
2018-07-27T00:23:52.468Z,29.48
2018-07-27T00:26:21.125Z,29.45
2018-07-27T00:28:49.843Z,29.43
2018-07-27T00:31:18.604Z,29.40
2018-07-27T00:33:47.299Z,29.37
2018-07-27T00:36:15.968Z,29.38
2018-07-27T00:38:44.595Z,29.36
2018-07-27T00:41:13.240Z,29.34
2018-07-27T00:43:42.155Z,29.32
2018-07-27T00:46:10.807Z,29.30
2018-07-27T00:48:39.449Z,29.27
2018-07-27T00:51:08.156Z,29.24
2018-07-27T00:53:36.943Z,29.22
2018-07-27T00:56:05.539Z,29.20
2018-07-27T00:58:34.298Z,29.17
2018-07-27T01:01:02.851Z,29.14
2018-07-27T01:03:31.569Z,29.10
2018-07-27T01:06:00.220Z,29.06
2018-07-27T01:08:28.880Z,29.02
2018-07-27T01:10:57.703Z,28.99
2018-07-27T01:13:26.373Z,28.94
2018-07-27T01:15:55.057Z,28.90
2018-07-27T01:18:24.482Z,28.86
2018-07-27T01:20:53.164Z,28.82
2018-07-27T01:23:23.071Z,28.78
2018-07-27T01:25:52.309Z,28.74
2018-07-27T01:28:21.716Z,28.67
2018-07-27T01:30:50.348Z,28.62
2018-07-27T01:33:18.990Z,28.59
2018-07-27T01:35:47.796Z,28.54
2018-07-27T01:38:16.562Z,28.50
2018-07-27T01:40:45.308Z,28.48
2018-07-27T01:43:14.005Z,28.44
2018-07-27T01:45:42.660Z,28.40
2018-07-27T01:48:11.376Z,28.35
2018-07-27T01:50:40.064Z,28.33
2018-07-27T01:53:08.821Z,28.28
2018-07-27T01:55:37.524Z,28.23
2018-07-27T01:58:06.244Z,28.20
2018-07-27T02:00:34.940Z,28.16
2018-07-27T02:03:03.724Z,28.12
2018-07-27T02:05:32.327Z,28.09
2018-07-27T02:08:01.086Z,28.06
2018-07-27T02:10:29.762Z,28.02
2018-07-27T02:12:58.378Z,27.98
2018-07-27T02:15:26.998Z,27.94
2018-07-27T02:17:55.622Z,27.89
2018-07-27T02:20:24.391Z,27.85
2018-07-27T02:22:53.035Z,27.79
2018-07-27T02:25:21.706Z,27.75
2018-07-27T02:27:50.393Z,27.71
2018-07-27T02:30:19.016Z,27.67
2018-07-27T02:32:47.752Z,27.63
2018-07-27T02:35:16.452Z,27.58
2018-07-27T02:37:45.070Z,27.54
2018-07-27T02:40:13.710Z,27.52
2018-07-27T02:42:42.402Z,27.49
2018-07-27T02:45:11.053Z,27.46
2018-07-27T02:47:39.694Z,27.42
2018-07-27T02:50:08.376Z,27.38
2018-07-27T02:52:37.000Z,27.36
2018-07-27T02:55:05.753Z,27.33
2018-07-27T02:57:34.399Z,27.31
2018-07-27T03:00:02.980Z,27.27
2018-07-27T03:02:31.640Z,27.25
2018-07-27T03:05:00.268Z,27.23
2018-07-27T03:07:28.906Z,27.19
2018-07-27T03:09:57.641Z,27.15
2018-07-27T03:12:26.246Z,27.13
2018-07-27T03:14:54.912Z,27.10
2018-07-27T03:17:23.501Z,27.08
2018-07-27T03:19:52.122Z,27.05
2018-07-27T03:22:20.829Z,27.03
2018-07-27T03:24:49.663Z,26.99
2018-07-27T03:27:18.323Z,26.95
2018-07-27T03:29:47.032Z,26.94
2018-07-27T03:32:15.705Z,26.90
2018-07-27T03:34:44.469Z,26.86
2018-07-27T03:37:13.239Z,26.84
2018-07-27T03:39:42.107Z,26.82
2018-07-27T03:42:10.762Z,26.79
2018-07-27T03:44:39.355Z,26.77
2018-07-27T03:47:08.203Z,26.73
2018-07-27T03:49:36.891Z,26.70
2018-07-27T03:52:05.521Z,26.70
2018-07-27T03:54:34.251Z,26.68
2018-07-27T03:57:03.122Z,26.67
2018-07-27T03:59:31.858Z,26.66
2018-07-27T04:02:00.526Z,26.65
2018-07-27T04:04:29.254Z,26.64
2018-07-27T04:06:57.939Z,26.63
2018-07-27T04:09:26.617Z,26.61
2018-07-27T04:11:55.266Z,26.60
2018-07-27T04:14:23.955Z,26.59
2018-07-27T04:16:52.572Z,26.59
2018-07-27T04:19:21.291Z,26.58
2018-07-27T04:21:49.913Z,26.56
2018-07-27T04:24:18.553Z,26.56
2018-07-27T04:26:47.135Z,26.56
2018-07-27T04:29:15.851Z,26.57
2018-07-27T04:31:44.599Z,26.58
2018-07-27T04:34:13.354Z,26.58
2018-07-27T04:36:42.838Z,26.60
2018-07-27T04:39:12.075Z,26.63
2018-07-27T04:41:40.716Z,26.66
2018-07-27T04:44:09.501Z,26.68
2018-07-27T04:46:38.100Z,26.72
2018-07-27T04:49:07.629Z,26.75
2018-07-27T04:51:36.227Z,26.78
2018-07-27T04:54:05.050Z,26.80
2018-07-27T04:56:33.821Z,26.83
2018-07-27T04:59:02.639Z,26.86
2018-07-27T05:01:31.360Z,26.88
2018-07-27T05:03:59.955Z,26.94
2018-07-27T05:06:28.679Z,26.96
2018-07-27T05:09:02.491Z,27.00
2018-07-27T05:11:31.229Z,27.03
2018-07-27T05:13:59.980Z,27.08
2018-07-27T05:16:28.768Z,27.13
2018-07-27T05:18:57.451Z,27.16
2018-07-27T05:21:26.056Z,27.20
2018-07-27T05:23:54.661Z,26.66
2018-07-27T05:26:23.276Z,27.30
2018-07-27T05:28:51.815Z,27.36
2018-07-27T05:31:20.399Z,27.43
2018-07-27T05:33:49.066Z,27.51
2018-07-27T05:36:17.797Z,27.59
2018-07-27T05:38:46.408Z,27.68
2018-07-27T05:41:14.988Z,27.79
2018-07-27T05:43:43.616Z,27.88
2018-07-27T05:46:12.204Z,27.96
2018-07-27T05:48:41.176Z,28.02
2018-07-27T05:51:09.801Z,28.12
2018-07-27T05:53:38.539Z,28.27
2018-07-27T05:56:07.173Z,28.55
2018-07-27T05:58:36.015Z,29.04
2018-07-27T06:01:05.222Z,29.56
2018-07-27T06:03:34.255Z,30.09
2018-07-27T06:06:03.097Z,30.62
2018-07-27T06:08:31.908Z,31.12
2018-07-27T06:11:00.660Z,31.60
2018-07-27T06:13:29.313Z,32.09
2018-07-27T06:15:58.124Z,32.64
2018-07-27T06:18:26.826Z,33.09
2018-07-27T06:20:55.574Z,33.52
2018-07-27T06:23:24.239Z,34.06
2018-07-27T06:25:52.992Z,34.60
2018-07-27T06:28:21.942Z,35.15
2018-07-27T06:30:50.917Z,35.70
2018-07-27T06:33:19.818Z,36.19
2018-07-27T06:35:48.558Z,36.62
2018-07-27T06:38:17.309Z,37.06
2018-07-27T06:40:46.286Z,37.46
2018-07-27T06:43:15.135Z,37.90
2018-07-27T06:45:47.481Z,38.31
2018-07-27T06:48:18.979Z,38.71
2018-07-27T06:50:49.811Z,39.08
2018-07-27T06:53:19.458Z,39.45
2018-07-27T06:55:48.589Z,39.81
2018-07-27T07:00:58.575Z,40.45
2018-07-27T07:03:27.901Z,40.80
2018-07-27T07:05:57.156Z,41.16
2018-07-27T07:08:26.122Z,41.47
2018-07-27T07:10:55.471Z,41.90
2018-07-27T07:13:26.684Z,42.16
2018-07-27T07:15:55.736Z,42.47
2018-07-27T07:18:24.769Z,42.69
2018-07-27T07:20:56.461Z,42.70
2018-07-27T07:23:28.369Z,42.67
2018-07-27T07:25:57.905Z,42.63
2018-07-27T07:28:26.160Z,42.63
2018-07-27T07:30:54.839Z,42.89
2018-07-27T07:33:23.603Z,43.15
2018-07-27T07:35:52.645Z,43.34
2018-07-27T07:38:21.359Z,43.52
2018-07-27T07:40:49.949Z,43.51
2018-07-27T07:43:18.538Z,43.40
2018-07-27T07:45:47.246Z,43.38
2018-07-27T07:48:15.902Z,43.33
2018-07-27T07:50:44.683Z,43.49
2018-07-27T07:53:13.288Z,43.80
2018-07-27T07:55:41.917Z,44.36
2018-07-27T07:58:10.596Z,44.79
2018-07-27T08:00:39.187Z,45.19
2018-07-27T08:03:07.955Z,45.55
2018-07-27T08:05:36.611Z,45.60
2018-07-27T08:08:05.319Z,45.28
2018-07-27T08:10:33.863Z,45.06
2018-07-27T08:13:02.567Z,44.98
2018-07-27T08:15:31.352Z,45.10
2018-07-27T08:18:00.376Z,45.27
2018-07-27T08:20:29.106Z,45.59
2018-07-27T08:22:57.842Z,45.56
2018-07-27T08:25:29.805Z,45.68
2018-07-27T08:28:10.273Z,45.75
2018-07-27T08:30:39.022Z,45.83
2018-07-27T08:33:08.254Z,46.15
2018-07-27T08:35:37.876Z,46.56
2018-07-27T08:38:06.552Z,46.84
2018-07-27T08:40:35.204Z,47.05
2018-07-27T08:43:04.502Z,46.99
2018-07-27T08:45:33.580Z,46.52
2018-07-27T08:48:02.295Z,46.62
2018-07-27T08:50:31.974Z,46.63
2018-07-27T08:53:00.824Z,46.91
2018-07-27T08:55:29.505Z,46.89
2018-07-27T08:57:58.205Z,47.04
2018-07-27T09:00:39.034Z,47.30
2018-07-27T09:03:07.736Z,47.56
2018-07-27T09:05:36.420Z,47.90
2018-07-27T09:08:05.154Z,47.99
2018-07-27T09:10:34.797Z,48.15
2018-07-27T09:13:03.529Z,48.49
2018-07-27T09:15:32.455Z,48.84
2018-07-27T09:18:01.337Z,49.22
2018-07-27T09:20:30.084Z,49.39
2018-07-27T09:22:58.975Z,49.44
2018-07-27T09:25:28.437Z,49.48
2018-07-27T09:27:57.685Z,49.57
2018-07-27T09:30:26.700Z,49.47
2018-07-27T09:32:55.591Z,49.54
2018-07-27T09:35:24.295Z,49.92
2018-07-27T09:37:53.799Z,50.39
2018-07-27T09:40:23.318Z,50.82
2018-07-27T09:42:52.283Z,50.91
2018-07-27T09:45:21.190Z,51.02
2018-07-27T09:47:50.250Z,51.11
2018-07-27T09:50:19.056Z,51.36
2018-07-27T09:52:47.812Z,51.72
2018-07-27T09:55:16.512Z,51.77
2018-07-27T09:57:45.167Z,51.77
2018-07-27T10:00:18.813Z,52.34
2018-07-27T10:02:47.652Z,52.91
2018-07-27T10:05:16.481Z,53.01
2018-07-27T10:07:45.180Z,52.87
2018-07-27T10:10:13.854Z,53.16
2018-07-27T10:12:42.814Z,53.43
2018-07-27T10:15:18.170Z,53.72
2018-07-27T10:17:48.287Z,54.10
2018-07-27T10:20:17.319Z,54.21
2018-07-27T10:22:46.053Z,54.60
2018-07-27T10:25:14.851Z,55.23
2018-07-27T10:27:43.548Z,55.21
2018-07-27T10:30:12.234Z,55.15
2018-07-27T10:32:40.995Z,55.31
2018-07-27T10:35:09.697Z,55.80
2018-07-27T10:37:38.401Z,55.38
2018-07-27T10:40:07.958Z,55.15
2018-07-27T10:42:36.550Z,54.96
2018-07-27T10:45:05.395Z,54.74
2018-07-27T10:47:34.777Z,55.02
2018-07-27T10:50:06.562Z,55.45
2018-07-27T10:52:35.280Z,55.34
2018-07-27T10:55:04.101Z,55.55
2018-07-27T10:57:32.752Z,55.81
2018-07-27T11:00:01.301Z,55.22
2018-07-27T11:02:30.045Z,54.67
2018-07-27T11:04:58.735Z,54.90
2018-07-27T11:07:27.398Z,55.32
2018-07-27T11:09:56.023Z,55.84
2018-07-27T11:12:24.628Z,55.96
2018-07-27T11:14:53.362Z,56.11
2018-07-27T11:17:22.005Z,56.18
2018-07-27T11:19:51.052Z,56.45
2018-07-27T11:22:19.726Z,56.02
2018-07-27T11:24:48.585Z,55.43
2018-07-27T11:27:17.272Z,55.22
2018-07-27T11:29:46.157Z,54.77
2018-07-27T11:32:14.805Z,54.67
2018-07-27T11:34:43.361Z,53.90
2018-07-27T11:37:12.026Z,53.05
2018-07-27T11:39:40.632Z,51.75
2018-07-27T11:42:09.333Z,50.56
2018-07-27T11:44:37.945Z,49.31
2018-07-27T11:47:06.744Z,48.05
2018-07-27T11:49:35.375Z,47.14
2018-07-27T11:52:04.188Z,46.49
2018-07-27T11:54:32.745Z,45.98
2018-07-27T11:57:01.414Z,45.50
2018-07-27T11:59:30.002Z,45.17
2018-07-27T12:01:58.656Z,44.75
2018-07-27T12:04:27.223Z,44.38
2018-07-27T12:06:55.922Z,44.03
2018-07-27T12:09:24.506Z,43.80
2018-07-27T12:11:53.242Z,43.66
2018-07-27T12:14:21.940Z,43.40
2018-07-27T12:16:50.589Z,43.17
2018-07-27T12:19:19.247Z,42.91
2018-07-27T12:21:48.364Z,42.78
2018-07-27T12:24:17.733Z,42.69
2018-07-27T12:26:46.334Z,42.65
2018-07-27T12:29:15.123Z,42.55
2018-07-27T12:31:43.833Z,42.47
2018-07-27T12:34:12.566Z,42.40
2018-07-27T12:36:41.200Z,42.41
2018-07-27T12:39:11.072Z,42.40
2018-07-27T12:41:40.944Z,42.32
2018-07-27T12:44:09.727Z,42.12
2018-07-27T12:46:38.971Z,41.86
2018-07-27T12:49:07.596Z,41.67
2018-07-27T12:51:36.259Z,41.49
2018-07-27T12:54:04.880Z,41.18
2018-07-27T12:56:33.354Z,41.00
2018-07-27T12:59:02.080Z,40.93
2018-07-27T13:01:30.695Z,41.04
2018-07-27T13:03:59.359Z,41.14
2018-07-27T13:06:28.085Z,41.17
2018-07-27T13:08:56.825Z,41.19
2018-07-27T13:11:25.545Z,41.20
2018-07-27T13:13:55.054Z,41.25
2018-07-27T13:16:24.426Z,41.19
2018-07-27T13:18:53.179Z,41.23
2018-07-27T13:21:21.753Z,41.32
2018-07-27T13:23:56.824Z,41.36
2018-07-27T13:26:25.524Z,41.37
2018-07-27T13:28:55.669Z,41.29
2018-07-27T13:31:44.943Z,41.29
2018-07-27T13:34:40.066Z,41.25
2018-07-27T13:37:08.822Z,41.23
2018-07-27T13:39:38.129Z,41.21
2018-07-27T13:42:07.682Z,41.14
2018-07-27T13:44:38.187Z,41.09
2018-07-27T13:47:07.423Z,41.01
2018-07-27T13:49:36.137Z,41.03
2018-07-27T13:52:05.303Z,41.09
2018-07-27T13:54:35.369Z,41.18
2018-07-27T13:57:04.083Z,41.21
2018-07-27T13:59:32.751Z,41.23
2018-07-27T14:02:01.696Z,41.22
2018-07-27T14:04:30.289Z,41.22
2018-07-27T14:06:59.949Z,41.23
2018-07-27T14:09:29.583Z,41.26
2018-07-27T14:11:59.116Z,41.37
2018-07-27T14:14:27.755Z,41.46
2018-07-27T14:16:56.899Z,41.57
2018-07-27T14:19:26.522Z,41.66
2018-07-27T14:21:55.293Z,41.70
2018-07-27T14:24:24.229Z,41.59
2018-07-27T14:26:52.843Z,41.45
2018-07-27T14:29:21.549Z,41.37
2018-07-27T14:31:50.540Z,41.31
2018-07-27T14:34:19.054Z,41.26
2018-07-27T14:36:47.730Z,41.25
2018-07-27T14:39:16.914Z,41.18
2018-07-27T14:41:45.747Z,41.17
2018-07-27T14:44:14.368Z,41.13
2018-07-27T14:46:43.384Z,41.04
2018-07-27T14:49:15.171Z,40.90
2018-07-27T14:51:44.036Z,40.83
2018-07-27T14:54:13.951Z,40.72
2018-07-27T14:56:43.131Z,40.71
2018-07-27T14:59:12.288Z,40.68
2018-07-27T15:01:41.316Z,40.68
2018-07-27T15:04:10.728Z,40.54
2018-07-27T15:06:39.493Z,40.50
2018-07-27T15:09:09.978Z,40.47
2018-07-27T15:11:38.608Z,40.44
2018-07-27T15:14:07.454Z,40.43
2018-07-27T15:16:36.300Z,40.45
2018-07-27T15:19:04.866Z,40.48
2018-07-27T15:21:33.758Z,40.56
2018-07-27T15:24:02.549Z,40.63
2018-07-27T15:26:31.389Z,40.61
2018-07-27T15:29:00.168Z,40.55
2018-07-27T15:31:29.278Z,40.46
2018-07-27T15:33:57.931Z,40.47
2018-07-27T15:36:26.833Z,40.47
2018-07-27T15:38:55.888Z,40.47
2018-07-27T15:41:24.713Z,40.48
2018-07-27T15:43:54.412Z,40.51
2018-07-27T15:46:23.040Z,40.59
2018-07-27T15:48:51.858Z,40.63
2018-07-27T15:51:20.637Z,40.62
2018-07-27T15:53:49.741Z,40.64
2018-07-27T15:56:18.695Z,40.59
2018-07-27T15:58:47.519Z,40.49
2018-07-27T16:01:16.515Z,40.43
2018-07-27T16:03:45.300Z,40.38
2018-07-27T16:06:14.706Z,40.30
2018-07-27T16:08:43.826Z,40.27
2018-07-27T16:11:12.562Z,40.26
2018-07-27T16:13:41.429Z,40.24
2018-07-27T16:16:10.308Z,40.18
2018-07-27T16:18:39.253Z,40.14
2018-07-27T16:21:08.907Z,40.07
2018-07-27T16:23:38.266Z,40.01
2018-07-27T16:26:08.759Z,39.96
2018-07-27T16:28:37.903Z,39.96
2018-07-27T16:31:07.177Z,39.95
2018-07-27T16:33:36.599Z,39.94
2018-07-27T16:36:07.070Z,39.93
2018-07-27T16:38:37.407Z,39.92
2018-07-27T16:41:07.449Z,39.88
2018-07-27T16:43:36.820Z,39.82
2018-07-27T16:46:05.649Z,39.79
2018-07-27T16:48:34.838Z,39.74
2018-07-27T16:51:04.224Z,39.68
2018-07-27T16:53:33.071Z,39.65
2018-07-27T16:56:01.996Z,39.61
2018-07-27T16:58:30.675Z,39.57
2018-07-27T17:00:59.568Z,39.51
2018-07-27T17:03:28.572Z,39.49
2018-07-27T17:05:57.630Z,39.43
2018-07-27T17:08:26.767Z,39.42
2018-07-27T17:10:55.761Z,39.39
2018-07-27T17:13:24.864Z,39.37
2018-07-27T17:15:53.902Z,39.33
2018-07-27T17:18:23.109Z,39.28
2018-07-27T17:20:52.020Z,39.27
2018-07-27T17:23:21.208Z,39.26
2018-07-27T17:25:50.461Z,39.26
2018-07-27T17:28:19.551Z,39.21
2018-07-27T17:30:48.721Z,39.13
2018-07-27T17:33:17.831Z,39.08
2018-07-27T17:35:46.604Z,39.05
2018-07-27T17:38:15.514Z,39.02
2018-07-27T17:40:44.229Z,38.98
2018-07-27T17:43:13.143Z,38.88
2018-07-27T17:45:41.849Z,38.79
2018-07-27T17:48:10.669Z,38.73
2018-07-27T17:50:39.574Z,38.70
2018-07-27T17:53:08.327Z,38.66
2018-07-27T17:55:37.051Z,38.59
2018-07-27T17:58:05.775Z,38.55
2018-07-27T18:00:34.570Z,38.46
2018-07-27T18:03:03.348Z,38.40
2018-07-27T18:05:31.953Z,38.32
2018-07-27T18:08:01.001Z,38.27
2018-07-27T18:10:30.025Z,38.22
2018-07-27T18:12:58.797Z,38.17
2018-07-27T18:15:27.724Z,38.09
2018-07-27T18:17:57.915Z,38.02
2018-07-27T18:20:27.759Z,37.94
2018-07-27T18:22:56.488Z,37.85
2018-07-27T18:25:26.093Z,37.75
2018-07-27T18:27:55.246Z,37.69
2018-07-27T18:30:23.973Z,37.62
2018-07-27T18:32:52.731Z,37.55
2018-07-27T18:35:21.838Z,37.47
2018-07-27T18:37:50.703Z,37.41
2018-07-27T18:40:19.432Z,37.33
2018-07-27T18:42:48.479Z,37.24
2018-07-27T18:45:17.621Z,37.17
2018-07-27T18:47:46.704Z,37.09
2018-07-27T18:50:15.585Z,37.01
2018-07-27T18:52:44.355Z,36.91
2018-07-27T18:55:13.072Z,36.82
2018-07-27T18:57:43.747Z,36.74
2018-07-27T19:00:13.008Z,36.64
2018-07-27T19:02:42.036Z,36.55
2018-07-27T19:05:10.922Z,36.48
2018-07-27T19:07:39.743Z,36.38
2018-07-27T19:10:09.109Z,36.30
2018-07-27T19:12:38.060Z,36.22
2018-07-27T19:15:07.855Z,36.14
2018-07-27T19:17:36.749Z,36.08
2018-07-27T19:20:05.653Z,36.00
2018-07-27T19:22:34.391Z,35.93
2018-07-27T19:25:03.052Z,35.83
2018-07-27T19:27:31.854Z,35.75
2018-07-27T19:30:00.553Z,35.67
2018-07-27T19:32:29.278Z,35.59
2018-07-27T19:34:58.109Z,35.49
2018-07-27T19:37:26.845Z,35.39
2018-07-27T19:39:55.638Z,35.28
2018-07-27T19:42:24.273Z,35.18
2018-07-27T19:44:53.323Z,35.09
2018-07-27T19:47:22.130Z,35.00
2018-07-27T19:49:51.281Z,34.91
2018-07-27T19:52:20.076Z,34.81
2018-07-27T19:54:48.924Z,34.72
2018-07-27T19:57:17.732Z,34.64
2018-07-27T19:59:46.753Z,34.55
2018-07-27T20:02:16.092Z,34.45
2018-07-27T20:04:44.971Z,34.38
2018-07-27T20:07:13.612Z,34.28
2018-07-27T20:09:42.359Z,34.19
2018-07-27T20:12:10.994Z,34.09
2018-07-27T20:14:39.633Z,33.99
2018-07-27T20:17:08.280Z,33.90
2018-07-27T20:19:37.007Z,33.80
2018-07-27T20:22:05.754Z,33.71
2018-07-27T20:24:34.462Z,33.61
2018-07-27T20:27:03.274Z,33.49
2018-07-27T20:29:32.038Z,33.39
2018-07-27T20:32:01.550Z,33.24
2018-07-27T20:34:30.243Z,33.11
2018-07-27T20:36:58.870Z,33.03
2018-07-27T20:39:27.470Z,32.92
2018-07-27T20:41:56.358Z,32.87
2018-07-27T20:44:25.175Z,32.79
2018-07-27T20:46:53.777Z,32.74
2018-07-27T20:49:22.410Z,32.65
2018-07-27T20:51:51.164Z,32.59
2018-07-27T20:54:19.830Z,32.53
2018-07-27T20:56:48.566Z,32.45
2018-07-27T20:59:17.283Z,32.40
2018-07-27T21:01:46.048Z,32.39
2018-07-27T21:04:14.798Z,32.41
2018-07-27T21:06:43.480Z,32.40
2018-07-27T21:09:12.775Z,32.39
2018-07-27T21:11:42.047Z,32.36
2018-07-27T21:14:10.801Z,32.32
2018-07-27T21:16:39.453Z,32.32
2018-07-27T21:19:08.257Z,32.31
2018-07-27T21:21:36.993Z,32.31
2018-07-27T21:24:05.682Z,32.30
2018-07-27T21:26:34.502Z,32.36
2018-07-27T21:29:03.375Z,32.41
2018-07-27T21:31:32.137Z,32.50
2018-07-27T21:34:00.802Z,32.54
2018-07-27T21:36:29.569Z,32.62
2018-07-27T21:38:58.278Z,32.64
2018-07-27T21:41:27.024Z,32.69
2018-07-27T21:43:56.055Z,32.72
2018-07-27T21:46:25.002Z,32.76
2018-07-27T21:48:53.946Z,32.76
2018-07-27T21:51:22.837Z,32.76
2018-07-27T21:53:51.837Z,32.77
2018-07-27T21:56:20.916Z,32.79
2018-07-27T21:58:49.740Z,32.77
2018-07-27T22:01:18.527Z,32.77
2018-07-27T22:03:47.178Z,32.74
2018-07-27T22:06:15.947Z,32.73
2018-07-27T22:08:44.670Z,32.70
2018-07-27T22:11:13.311Z,32.70
2018-07-27T22:13:42.130Z,32.72
2018-07-27T22:16:10.858Z,32.68
2018-07-27T22:18:39.600Z,32.66
2018-07-27T22:21:08.360Z,32.64
2018-07-27T22:23:37.135Z,32.64
2018-07-27T22:26:05.900Z,32.61
2018-07-27T22:28:34.657Z,32.59
2018-07-27T22:31:03.436Z,32.53
2018-07-27T22:33:32.337Z,32.49
2018-07-27T22:36:01.134Z,32.44
2018-07-27T22:38:29.939Z,32.40
2018-07-27T22:40:58.870Z,32.39
2018-07-27T22:43:27.735Z,32.37
2018-07-27T22:45:56.468Z,32.32
2018-07-27T22:48:25.231Z,32.27
2018-07-27T22:50:53.952Z,32.27
2018-07-27T22:53:22.743Z,32.20
2018-07-27T22:55:51.624Z,32.19
2018-07-27T22:58:20.472Z,32.16
2018-07-27T23:00:49.207Z,32.14
2018-07-27T23:03:18.192Z,32.11
2018-07-27T23:05:47.056Z,32.04
2018-07-27T23:08:15.797Z,32.01
2018-07-27T23:10:44.606Z,32.00
2018-07-27T23:13:13.329Z,31.95
2018-07-27T23:15:42.100Z,31.94
2018-07-27T23:18:10.767Z,31.91
2018-07-27T23:20:39.479Z,31.82
2018-07-27T23:23:08.167Z,31.85
2018-07-27T23:25:36.822Z,31.85
2018-07-27T23:28:05.629Z,31.81
2018-07-27T23:30:34.467Z,31.77
2018-07-27T23:33:03.208Z,31.72
2018-07-27T23:35:31.931Z,31.71
2018-07-27T23:38:00.641Z,31.70
2018-07-27T23:40:29.322Z,31.68
2018-07-27T23:42:58.110Z,31.66
2018-07-27T23:45:26.719Z,31.64
2018-07-27T23:47:55.373Z,31.59
2018-07-27T23:50:24.161Z,31.58
2018-07-27T23:52:54.897Z,31.54
2018-07-27T23:55:24.193Z,31.54
2018-07-27T23:57:52.987Z,31.54
